KBEH/BEH METAR and TAF weather

Enter ICAO airport designator
Station Type Date Time Source
KBEH METAR 2018/07/16 23:53 UTC NOAA

KBEH 162353Z AUTO VRB04KT 10SM CLR 26/21 A2992 RMK AO2 SLP126 T02560206 10300 20256 53005


Station Type Date Time Source
KBEH Decoded METAR 2018/07/16 23:53 UTC NOAA

SOUTHWEST MICHIGAN REGIONAL, MI, United States (KBEH) 42-08N 86-25W 191M
Jul 16, 2018 - 07:53 PM EDT / 2018.07.16 2353 UTC
Wind: Variable at 5 MPH (4 KT):0
Visibility: 10 mile(s):0
Sky conditions: clear
Temperature: 78.1 F (25.6 C)
Dew Point: 69.1 F (20.6 C)
Relative Humidity: 73%
Pressure (altimeter): 29.92 in. Hg (1013 hPa)
Pressure tendency: 0.01 inches (0.5 hPa) higher than three hours ago
ob: KBEH 162353Z AUTO VRB04KT 10SM CLR 26/21 A2992 RMK AO2 SLP126 T02560206 10300 20256 53005
cycle: 0

Station Type Date Time Source
KBEH TAF UTC NOAA

Error!


Example: see airport list